Time;durP1;ratioP1;P1;durP2;ratioP2;P2;SDS_P1;SDS_P2;PMS_P1;PMS_P2;Temp;Humidity;BMP_temperature;BMP_pressure;BME280_temperature;BME280_humidity;BME280_pressure;Samples;Min_cycle;Max_cycle;Signal;HPM_P1;HPM_P2
2022/05/20 00:00:38;;;;;;;;;0.00;0.00;;;;;21.57;43.88;101700.91;6281785;22;46992;-82
2022/05/20 00:03:06;;;;;;;;;3.33;1.00;;;;;21.54;43.79;101697.44;6310266;22;45137;-82
2022/05/20 00:05:35;;;;;;;;;2.33;1.00;;;;;21.49;43.67;101696.72;6309853;22;45243;-82
2022/05/20 00:08:03;;;;;;;;;2.00;2.00;;;;;21.45;43.74;101687.91;6310390;22;45308;-83
2022/05/20 00:10:30;;;;;;;;;1.33;1.33;;;;;21.44;43.69;101677.22;6310689;22;46807;-82
2022/05/20 00:12:55;;;;;;;;;2.00;2.00;;;;;21.44;43.54;101682.59;6310740;22;45125;-82
2022/05/20 00:15:25;;;;;;;;;3.00;1.00;;;;;21.41;43.24;101680.03;6310937;22;45167;-82
2022/05/20 00:17:51;;;;;;;;;2.67;0.33;;;;;21.40;43.58;101679.16;6311102;22;45373;-82
2022/05/20 00:20:19;;;;;;;;;1.00;1.00;;;;;21.40;43.12;101673.78;6311378;22;45782;-82
2022/05/20 00:22:45;;;;;;;;;1.00;1.00;;;;;21.39;42.80;101681.91;6283092;22;45141;-83
2022/05/20 00:27:56;;;;;;;;;0.67;0.67;;;;;21.36;42.72;101674.81;6310845;22;45220;-82
2022/05/20 00:30:22;;;;;;;;;0.33;0.33;;;;;21.39;42.93;101676.53;6310560;22;45364;-82
2022/05/20 00:32:47;;;;;;;;;1.00;1.00;;;;;21.39;42.49;101672.06;6282844;22;45233;-83
2022/05/20 00:35:14;;;;;;;;;0.33;0.00;;;;;21.42;42.53;101673.75;6282596;22;45313;-83
2022/05/20 00:37:40;;;;;;;;;0.00;0.00;;;;;21.41;42.49;101675.56;6282442;22;45571;-83
2022/05/20 00:40:08;;;;;;;;;1.00;1.00;;;;;21.43;41.86;101675.50;6310333;22;45353;-82
2022/05/20 00:42:36;;;;;;;;;1.00;1.00;;;;;21.44;41.95;101675.47;6310348;22;45236;-83
2022/05/20 00:45:04;;;;;;;;;0.00;0.00;;;;;21.42;41.87;101674.63;6282284;22;45112;-84
2022/05/20 00:47:32;;;;;;;;;1.00;1.00;;;;;21.41;41.44;101674.66;6282655;22;45414;-83
2022/05/20 00:50:01;;;;;;;;;1.00;1.00;;;;;21.42;41.54;101671.94;6281754;22;47286;-83
2022/05/20 00:52:31;;;;;;;;;1.00;1.00;;;;;21.40;41.98;101664.88;6309633;22;45224;-83
2022/05/20 00:55:03;;;;;;;;;1.67;1.00;;;;;21.43;41.57;101662.09;6282047;22;45392;-83
2022/05/20 00:57:38;;;;;;;;;3.00;0.00;;;;;21.46;41.41;101667.34;6310562;22;45331;-83
2022/05/20 01:00:18;;;;;;;;;0.00;0.00;;;;;21.45;41.09;101661.13;6282009;22;47956;-83
2022/05/20 01:02:46;;;;;;;;;0.00;0.00;;;;;21.46;41.36;101667.34;6310090;22;45258;-83
2022/05/20 01:05:23;;;;;;;;;1.33;1.33;;;;;21.46;41.50;101660.19;6282383;22;45223;-83
2022/05/20 01:07:51;;;;;;;;;0.00;0.00;;;;;21.46;41.43;101648.59;6310307;22;45207;-83
2022/05/20 01:10:19;;;;;;;;;2.00;0.00;;;;;21.44;41.22;101643.31;6281214;22;47426;-83
2022/05/20 01:12:46;;;;;;;;;1.67;0.67;;;;;21.40;41.12;101643.47;6282494;22;45514;-83
2022/05/20 01:15:16;;;;;;;;;0.00;0.00;;;;;21.34;40.70;101640.03;6282323;22;45235;-83
2022/05/20 01:17:44;;;;;;;;;1.67;1.00;;;;;21.29;40.92;101633.94;6281996;22;45767;-83
2022/05/20 01:20:21;;;;;;;;;1.00;0.00;;;;;21.22;41.14;101636.88;6309792;22;45410;-83
2022/05/20 01:23:13;;;;;;;;;1.00;0.33;;;;;21.18;40.89;101635.25;6282399;22;45224;-82
2022/05/20 01:25:44;;;;;;;;;1.67;1.67;;;;;21.13;40.84;101616.66;6282653;22;45145;-83
2022/05/20 01:28:10;;;;;;;;;0.00;0.00;;;;;21.08;41.01;101611.44;6282428;22;45617;-83
2022/05/20 01:30:47;;;;;;;;;1.33;0.33;;;;;21.04;40.72;101615.16;6281970;22;47015;-83
2022/05/20 01:33:26;;;;;;;;;0.00;0.00;;;;;21.00;40.98;101610.81;6310336;22;45384;-84
2022/05/20 01:35:55;;;;;;;;;1.00;0.00;;;;;20.93;40.76;101602.13;6281919;22;45249;-83
2022/05/20 01:38:20;;;;;;;;;1.00;1.00;;;;;20.90;40.93;101602.25;6282159;22;45454;-84
2022/05/20 01:40:52;;;;;;;;;1.00;1.00;;;;;20.84;41.09;101589.03;6281919;22;46959;-84
2022/05/20 01:43:17;;;;;;;;;1.00;1.00;;;;;20.83;41.16;101594.47;6280831;22;45195;-84
2022/05/20 01:46:12;;;;;;;;;0.00;0.00;;;;;20.78;41.68;101588.38;6310767;22;45157;-84
2022/05/20 01:49:05;;;;;;;;;0.67;0.67;;;;;20.75;41.26;101596.50;6267681;22;45187;-84
2022/05/20 01:51:38;;;;;;;;;1.00;1.00;;;;;20.75;41.62;101586.69;6281578;22;48033;-84
2022/05/20 01:54:14;;;;;;;;;0.00;0.00;;;;;20.77;41.61;101583.94;6281219;22;45312;-84
2022/05/20 01:56:52;;;;;;;;;0.00;0.00;;;;;20.74;41.81;101584.91;6281854;22;45197;-83
2022/05/20 01:59:37;;;;;;;;;0.33;0.33;;;;;20.78;41.33;101578.53;6281735;22;45378;-83
2022/05/20 02:02:10;;;;;;;;;0.67;0.67;;;;;20.77;41.89;101576.81;6310126;22;46427;-83
2022/05/20 02:04:47;;;;;;;;;0.00;0.00;;;;;20.78;41.56;101577.69;6309925;22;45187;-83
2022/05/20 02:07:23;;;;;;;;;1.00;1.00;;;;;20.78;41.22;101575.00;6309748;22;45152;-83
2022/05/20 02:09:59;;;;;;;;;0.00;0.00;;;;;20.79;41.28;101574.94;6309697;22;45399;-83
2022/05/20 02:12:28;;;;;;;;;0.00;0.00;;;;;20.80;41.79;101566.00;6281591;22;48059;-84
2022/05/20 02:15:04;;;;;;;;;0.00;0.00;;;;;20.83;41.59;101570.38;6310144;22;45296;-83
2022/05/20 02:17:42;;;;;;;;;1.67;1.00;;;;;20.83;41.65;101551.63;6310144;22;45327;-83
2022/05/20 02:20:41;;;;;;;;;0.00;0.00;;;;;20.84;41.33;101548.03;6280773;22;45216;-84
2022/05/20 02:23:14;;;;;;;;;1.67;1.00;;;;;20.81;41.31;101550.81;6280071;22;47532;-83
2022/05/20 02:25:47;;;;;;;;;2.67;0.00;;;;;20.78;41.80;101551.78;6309557;22;45337;-84
2022/05/20 02:28:19;;;;;;;;;0.00;0.00;;;;;20.78;41.49;101549.09;6282060;22;45195;-84
2022/05/20 02:30:45;;;;;;;;;1.00;1.00;;;;;20.79;41.79;101556.19;6281487;22;45392;-83
2022/05/20 02:33:15;;;;;;;;;2.00;1.00;;;;;20.81;41.85;101546.31;6281166;22;46975;-84
2022/05/20 02:35:42;;;;;;;;;2.00;1.00;;;;;20.82;42.04;101548.09;6281262;22;45603;-83
2022/05/20 02:38:15;;;;;;;;;2.00;1.00;;;;;20.82;41.96;101539.16;6282529;22;45370;-83
2022/05/20 02:40:43;;;;;;;;;1.00;0.67;;;;;20.83;41.68;101549.81;6310511;22;45291;-83
2022/05/20 02:43:09;;;;;;;;;2.00;1.00;;;;;20.82;42.07;101547.19;6280329;22;47613;-83
2022/05/20 02:45:36;;;;;;;;;1.00;1.00;;;;;20.78;42.07;101545.56;6309992;22;45250;-83
2022/05/20 02:48:01;;;;;;;;;3.00;1.00;;;;;20.74;42.19;101538.53;6282125;22;45236;-84
2022/05/20 02:50:27;;;;;;;;;1.00;1.00;;;;;20.75;42.69;101546.53;6281076;22;45244;-83
2022/05/20 02:52:52;;;;;;;;;1.00;1.00;;;;;20.74;42.46;101539.41;6281667;22;46895;-83
2022/05/20 02:55:18;;;;;;;;;1.00;1.00;;;;;20.69;42.54;101539.59;6280626;22;45176;-83
2022/05/20 02:57:47;;;;;;;;;1.00;1.00;;;;;20.64;42.87;101538.00;6309867;22;45374;-83
2022/05/20 03:05:43;;;;;;;;;1.00;1.00;;;;;20.54;43.51;101540.09;6309189;22;45417;-83
2022/05/20 03:08:09;;;;;;;;;2.00;2.00;;;;;20.53;43.63;101540.09;6282061;22;45295;-83
2022/05/20 03:10:34;;;;;;;;;0.00;0.00;;;;;20.51;44.00;101534.81;6309725;22;45109;-83
2022/05/20 03:13:02;;;;;;;;;0.67;0.67;;;;;20.50;43.61;101538.38;6280840;22;46717;-83
2022/05/20 03:15:29;;;;;;;;;1.67;1.00;;;;;20.45;43.98;101537.69;6281676;22;45268;-83
2022/05/20 03:17:55;;;;;;;;;0.00;0.00;;;;;20.39;44.07;101527.16;6309950;22;45389;-83
2022/05/20 03:20:21;;;;;;;;;2.00;2.00;;;;;20.34;44.82;101532.69;6281492;22;45474;-83
2022/05/20 03:22:52;;;;;;;;;2.00;1.00;;;;;20.32;44.69;101533.66;6281557;22;47123;-83
2022/05/20 03:25:20;;;;;;;;;1.00;1.00;;;;;20.34;45.02;101535.34;6281439;22;45161;-83
2022/05/20 03:27:46;;;;;;;;;5.00;4.00;;;;;20.35;45.27;101549.59;6309625;22;45306;-82
2022/05/20 03:30:16;;;;;;;;;3.00;3.00;;;;;20.33;45.48;101532.72;6281729;22;45408;-83
2022/05/20 03:32:44;;;;;;;;;4.50;3.75;;;;;20.34;45.28;101532.69;6287521;22;47648;-83
2022/05/20 03:35:12;;;;;;;;;4.00;3.50;;;;;20.39;45.70;101537.84;6283112;22;45452;-83
2022/05/20 03:37:38;;;;;;;;;3.75;3.75;;;;;20.37;45.77;101537.03;6310882;22;45283;-83
2022/05/20 03:40:04;;;;;;;;;7.25;4.75;;;;;20.33;45.55;101528.22;6283059;22;45341;-83
2022/05/20 03:42:33;;;;;;;;;3.50;2.25;;;;;20.31;45.48;101522.06;6282813;22;47090;-84
2022/05/20 03:44:59;;;;;;;;;4.00;3.00;;;;;20.35;45.66;101523.72;6310721;22;45082;-84
2022/05/20 03:47:25;;;;;;;;;3.33;1.00;;;;;20.30;45.96;101514.97;6311202;22;45319;-83
2022/05/20 03:49:50;;;;;;;;;3.00;2.00;;;;;20.28;45.94;101506.09;6282817;22;45557;-83
2022/05/20 03:52:16;;;;;;;;;1.00;1.00;;;;;20.25;45.77;101504.41;6282585;22;46830;-83
2022/05/20 03:54:47;;;;;;;;;0.67;0.67;;;;;20.18;46.12;101492.19;6283054;22;45279;-83
2022/05/20 03:57:13;;;;;;;;;2.00;2.00;;;;;20.13;46.59;101491.44;6282958;22;45285;-83
2022/05/20 03:59:39;;;;;;;;;2.67;2.67;;;;;20.10;46.95;101498.66;6282504;22;45764;-83
2022/05/20 04:02:10;;;;;;;;;1.67;1.67;;;;;20.03;47.02;101496.19;6310723;22;45952;-83
2022/05/20 04:05:04;;;;;;;;;1.67;1.67;;;;;19.99;46.92;101480.28;6282338;22;45264;-84
2022/05/20 04:07:29;;;;;;;;;2.00;1.75;;;;;19.95;47.04;101487.53;6282875;22;45301;-83
2022/05/20 04:09:55;;;;;;;;;5.00;2.00;;;;;19.94;47.47;101491.16;6311396;22;45496;-83
2022/05/20 04:12:32;;;;;;;;;2.00;2.00;;;;;19.94;47.44;101491.16;6282423;22;46607;-83
2022/05/20 04:14:58;;;;;;;;;3.00;1.67;;;;;19.93;47.52;101488.50;6311021;22;45181;-84
2022/05/20 04:17:27;;;;;;;;;2.25;2.00;;;;;19.92;47.82;101490.31;6282796;22;45215;-84
2022/05/20 04:19:53;;;;;;;;;5.33;2.67;;;;;19.93;47.55;101486.69;6282506;22;45426;-84
2022/05/20 04:22:26;;;;;;;;;4.00;2.33;;;;;19.92;48.01;101498.31;6282862;22;47042;-84
2022/05/20 04:24:54;;;;;;;;;3.00;2.00;;;;;19.92;47.79;101509.00;6308482;22;45313;-83
2022/05/20 04:27:20;;;;;;;;;2.67;2.67;;;;;19.95;47.94;101500.03;6282546;22;45465;-83
2022/05/20 04:29:46;;;;;;;;;2.00;2.00;;;;;19.98;48.22;101502.59;6282720;22;45599;-83
2022/05/20 04:32:14;;;;;;;;;2.00;2.00;;;;;19.98;48.31;101498.13;6310697;22;45136;-83
2022/05/20 04:34:39;;;;;;;;;2.00;2.00;;;;;20.02;48.06;101504.25;6310510;22;45340;-83
2022/05/20 04:37:15;;;;;;;;;3.00;3.00;;;;;20.00;48.38;101498.97;6282022;22;45370;-83
2022/05/20 04:39:41;;;;;;;;;2.00;2.00;;;;;20.05;48.28;101501.50;6310283;22;45349;-83
2022/05/20 04:47:40;;;;;;;;;5.00;4.00;;;;;20.15;48.66;101516.31;6310345;22;45172;-83
2022/05/20 04:50:06;;;;;;;;;2.33;2.33;;;;;20.18;48.58;101513.56;6282017;22;45470;-83
2022/05/20 04:52:32;;;;;;;;;4.00;4.00;;;;;20.28;48.56;101519.47;6282129;22;46921;-83
2022/05/20 04:55:05;;;;;;;;;3.75;3.75;;;;;20.35;48.61;101523.72;6281678;22;45192;-83
2022/05/20 04:57:45;;;;;;;;;3.75;2.75;;;;;20.43;48.51;101521.66;6282614;22;45159;-83
2022/05/20 05:00:18;;;;;;;;;4.00;2.00;;;;;20.47;48.16;101520.66;6281850;22;45396;-84
2022/05/20 05:02:45;;;;;;;;;2.00;2.00;;;;;20.55;48.28;101527.56;6310370;22;46314;-84
2022/05/20 05:05:13;;;;;;;;;3.00;3.00;;;;;20.61;48.30;101512.22;6309929;22;45405;-83
2022/05/20 05:07:43;;;;;;;;;1.00;1.00;;;;;20.63;48.35;101518.38;6282170;22;45198;-83
2022/05/20 05:10:10;;;;;;;;;2.50;2.50;;;;;20.65;48.45;101521.00;6282127;22;45390;-83
2022/05/20 05:12:36;;;;;;;;;3.00;3.00;;;;;20.68;48.34;101523.56;6310484;22;45375;-84
2022/05/20 05:15:06;;;;;;;;;4.75;3.25;;;;;20.75;48.59;101540.31;6282431;22;45307;-83
2022/05/20 05:20:21;;;;;;;;;3.00;2.50;;;;;20.76;48.85;101539.38;6309887;22;45177;-82
2022/05/20 05:22:52;;;;;;;;;4.00;2.75;;;;;20.75;48.47;101522.44;6281207;22;46096;-81
2022/05/20 05:25:20;;;;;;;;;3.00;3.00;;;;;20.77;48.29;101522.38;6276991;22;46552;-83
2022/05/20 05:27:48;;;;;;;;;5.50;3.25;;;;;20.76;48.76;101517.97;6281468;22;45343;-85
2022/05/20 05:30:22;;;;;;;;;3.00;3.00;;;;;20.75;48.84;101500.16;6281375;22;45287;-84
2022/05/20 05:32:48;;;;;;;;;3.50;3.50;;;;;20.73;48.55;101494.84;6281390;22;47646;-81
2022/05/20 05:35:17;;;;;;;;;6.00;3.25;;;;;20.74;48.77;101496.59;6281224;22;45222;-82
2022/05/20 05:37:42;;;;;;;;;2.50;2.50;;;;;20.74;48.68;101485.03;6282324;22;45153;-81
2022/05/20 05:40:16;;;;;;;;;3.50;3.50;;;;;20.75;48.82;101492.13;6281847;22;45139;-81
2022/05/20 05:42:44;;;;;;;;;3.25;3.25;;;;;20.74;48.89;101496.59;6281937;22;46669;-81
2022/05/20 05:45:12;;;;;;;;;3.33;3.33;;;;;20.72;49.33;101498.47;6281968;22;45477;-81
2022/05/20 05:47:41;;;;;;;;;5.00;4.00;;;;;20.74;49.00;101493.03;6282397;22;45303;-81
2022/05/20 05:50:07;;;;;;;;;4.00;3.00;;;;;20.75;49.10;101478.75;6309649;22;45251;-81
2022/05/20 05:52:32;;;;;;;;;4.00;4.00;;;;;20.74;48.96;101474.31;6310123;22;45224;-80
2022/05/20 05:55:01;;;;;;;;;5.00;5.00;;;;;20.72;49.79;101463.69;6281757;22;45125;-82
2022/05/20 05:57:26;;;;;;;;;3.00;3.00;;;;;20.69;50.00;101453.09;6280951;22;45353;-81
2022/05/20 05:59:52;;;;;;;;;2.33;2.33;;;;;20.72;50.17;101479.75;6281531;22;45241;-81
2022/05/20 06:02:17;;;;;;;;;4.75;4.75;;;;;20.72;50.74;101470.84;6310139;22;45250;-81
2022/05/20 06:04:43;;;;;;;;;2.75;2.00;;;;;20.73;51.34;101480.59;6309883;22;45318;-81
2022/05/20 06:07:14;;;;;;;;;4.50;4.00;;;;;20.70;51.87;101509.22;6282085;22;45375;-81
2022/05/20 06:09:53;;;;;;;;;4.00;4.00;;;;;20.66;51.47;101517.38;6310116;22;45381;-83
2022/05/20 06:12:21;;;;;;;;;4.00;2.00;;;;;20.63;52.26;101513.00;6309794;22;46242;-84
2022/05/20 06:14:49;;;;;;;;;3.50;2.50;;;;;20.62;52.40;101516.63;6309972;22;45165;-85
2022/05/20 06:17:16;;;;;;;;;5.25;4.50;;;;;20.66;52.74;101507.59;6310185;22;45318;-85
2022/05/20 06:19:47;;;;;;;;;3.25;2.75;;;;;20.67;53.16;101479.88;6309863;22;45311;-85
2022/05/20 06:22:12;;;;;;;;;5.25;5.00;;;;;20.68;53.70;101464.69;6280879;22;47004;-79
2022/05/20 06:24:38;;;;;;;;;7.75;6.50;;;;;20.65;54.10;101451.44;6309638;22;45155;-80
2022/05/20 06:27:04;;;;;;;;;8.25;6.00;;;;;20.60;54.73;101440.88;6310074;22;45145;-81
2022/05/20 06:29:30;;;;;;;;;4.50;4.00;;;;;20.55;55.66;101399.16;6281659;22;46076;-78
2022/05/20 06:31:55;;;;;;;;;8.75;7.50;;;;;20.51;56.24;101386.81;6309551;22;46120;-79
2022/05/20 06:34:21;;;;;;;;;5.00;4.50;;;;;20.47;55.88;101386.00;6281570;22;45287;-79
2022/05/20 06:39:49;;;;;;;;;5.00;4.75;;;;;20.44;55.71;101445.84;6309719;22;45489;-86
2022/05/20 06:42:14;;;;;;;;;8.50;7.00;;;;;20.40;56.19;101478.97;6281404;22;47568;-90
2022/05/20 06:44:40;;;;;;;;;6.00;5.75;;;;;20.39;55.95;101439.75;6309879;22;45264;-90
2022/05/20 06:47:06;;;;;;;;;6.00;6.00;;;;;20.35;56.14;101443.47;6283878;22;45365;-93
2022/05/20 06:49:35;;;;;;;;;5.00;5.00;;;;;20.35;56.53;101450.63;6283765;22;45887;-91
2022/05/20 06:52:03;;;;;;;;;7.25;6.00;;;;;20.34;56.94;101420.34;6283110;22;48442;-86
2022/05/20 06:54:30;;;;;;;;;10.00;8.50;;;;;20.32;57.06;101378.53;6310627;22;45184;-84
2022/05/20 06:56:58;;;;;;;;;7.75;7.00;;;;;20.30;57.55;101276.09;6281662;22;45383;-86
2022/05/20 06:59:26;;;;;;;;;6.50;5.25;;;;;20.33;57.61;101145.81;6281939;22;45522;-88
2022/05/20 07:01:54;;;;;;;;;10.25;9.25;;;;;20.30;57.68;101166.47;6280843;22;47233;-86
2022/05/20 07:04:22;;;;;;;;;7.75;6.75;;;;;20.26;57.62;101238.78;6309085;22;45399;-87
2022/05/20 07:06:52;;;;;;;;;6.75;6.75;;;;;20.25;58.39;101234.31;6283708;22;45300;-89
2022/05/20 07:10:01;;;;;;;;;11.75;8.25;;;;;20.28;58.30;101207.47;6288302;22;45233;-87
2022/05/20 07:12:46;;;;;;;;;9.50;9.50;;;;;20.29;58.17;101213.72;6313899;22;45336;-86
2022/05/20 07:15:21;;;;;;;;;14.00;13.75;;;;;20.28;58.53;101223.53;6310383;22;45428;-84
2022/05/20 07:17:48;;;;;;;;;6.50;6.50;;;;;20.34;58.64;101242.94;6283001;22;45415;-86
2022/05/20 07:20:14;;;;;;;;;9.00;7.00;;;;;20.38;58.76;101233.91;6283351;22;45381;-86
2022/05/20 07:22:39;;;;;;;;;11.25;10.75;;;;;20.46;58.52;101253.22;6281918;22;45875;-83
2022/05/20 07:25:05;;;;;;;;;8.75;6.50;;;;;20.51;58.55;101269.97;6277615;22;45484;-83
2022/05/20 07:27:34;;;;;;;;;8.50;8.50;;;;;20.55;58.44;101273.41;6309155;22;45297;-89
2022/05/20 07:29:59;;;;;;;;;8.00;8.00;;;;;20.57;58.60;101288.50;6309422;22;45326;-84
2022/05/20 07:32:28;;;;;;;;;11.25;9.25;;;;;20.59;58.64;101305.38;6278131;22;47087;-89
2022/05/20 07:34:59;;;;;;;;;10.25;8.00;;;;;20.61;58.39;101327.59;6282717;22;45294;-90
2022/05/20 07:37:25;;;;;;;;;9.00;7.75;;;;;20.62;58.06;101321.31;6283049;22;45362;-91
2022/05/20 07:39:50;;;;;;;;;10.00;7.25;;;;;20.69;58.48;101321.97;6283210;22;45354;-91
2022/05/20 07:42:18;;;;;;;;;12.00;10.00;;;;;20.74;59.01;101336.03;6284211;22;47718;-93
2022/05/20 07:44:44;;;;;;;;;12.50;10.75;;;;;20.76;58.97;101360.06;6309238;22;45128;-92
2022/05/20 07:47:10;;;;;;;;;9.75;9.75;;;;;20.79;58.44;101378.69;6282892;22;45257;-92
2022/05/20 07:49:36;;;;;;;;;21.00;14.50;;;;;20.77;58.31;101393.91;6280465;22;45333;-87
2022/05/20 07:52:03;;;;;;;;;15.00;13.75;;;;;20.77;57.97;101413.56;6280137;22;47359;-85
2022/05/20 07:54:36;;;;;;;;;16.00;14.00;;;;;20.74;58.36;101429.69;6279735;22;45435;-86
2022/05/20 07:57:07;;;;;;;;;18.25;16.50;;;;;20.76;58.40;101453.75;6278534;22;45387;-85
2022/05/20 08:00:03;;;;;;;;;14.50;13.50;;;;;20.78;57.97;101393.88;6279937;22;45339;-85
2022/05/20 08:02:29;;;;;;;;;16.25;13.00;;;;;20.76;58.48;101363.63;6279693;22;47456;-85
2022/05/20 08:04:57;;;;;;;;;10.00;9.50;;;;;20.74;58.87;101362.78;6304646;22;45242;-86
2022/05/20 08:07:27;;;;;;;;;20.25;14.75;;;;;20.73;59.23;101355.69;6305945;22;45287;-85
2022/05/20 08:09:53;;;;;;;;;21.00;19.25;;;;;20.73;59.44;101355.69;6277922;22;45464;-85
2022/05/20 08:12:19;;;;;;;;;11.50;10.50;;;;;20.72;59.43;101323.66;6276800;22;47120;-84
2022/05/20 08:14:45;;;;;;;;;13.75;12.50;;;;;20.67;59.63;101332.72;6277316;22;45772;-85
2022/05/20 08:17:10;;;;;;;;;13.25;12.00;;;;;20.63;59.73;101325.72;6305337;22;45358;-84
2022/05/20 08:19:38;;;;;;;;;11.00;11.00;;;;;20.59;60.00;101341.97;6307073;22;45374;-84
2022/05/20 08:22:03;;;;;;;;;14.00;13.25;;;;;20.59;60.56;101344.63;6278945;22;47119;-85
2022/05/20 08:24:30;;;;;;;;;14.75;12.75;;;;;20.60;60.00;101330.31;6281121;22;45286;-84
2022/05/20 08:26:56;;;;;;;;;16.75;14.00;;;;;20.59;60.22;101318.75;6281815;22;45425;-85
2022/05/20 08:29:21;;;;;;;;;15.75;13.75;;;;;20.62;60.54;101315.97;6307804;22;45398;-85
2022/05/20 08:31:47;;;;;;;;;16.00;13.50;;;;;20.62;60.84;101323.13;6309604;22;45435;-85
2022/05/20 08:34:13;;;;;;;;;17.75;15.00;;;;;20.67;60.55;101331.84;6281679;22;45284;-85
2022/05/20 08:36:44;;;;;;;;;14.50;14.25;;;;;20.67;60.91;101353.25;6281336;22;45378;-85
2022/05/20 08:39:12;;;;;;;;;16.25;13.25;;;;;20.63;60.88;101454.16;6306441;22;45354;-84
2022/05/20 08:41:41;;;;;;;;;17.50;14.75;;;;;20.57;60.66;101504.31;6281171;22;47837;-85
2022/05/20 08:44:12;;;;;;;;;17.00;14.00;;;;;20.49;60.65;101516.13;6309539;22;45285;-85
2022/05/20 08:46:40;;;;;;;;;13.25;12.75;;;;;20.42;60.55;101537.75;6309801;22;45278;-85
2022/05/20 08:49:10;;;;;;;;;18.50;18.50;;;;;20.33;61.46;101409.69;6309073;22;45139;-85
2022/05/20 08:51:39;;;;;;;;;22.25;20.25;;;;;20.30;62.12;101482.00;6280196;22;47224;-84
2022/05/20 08:54:05;;;;;;;;;17.75;17.25;;;;;20.30;62.94;101412.47;6281669;22;45265;-85
2022/05/20 08:56:30;;;;;;;;;21.00;18.75;;;;;20.35;62.48;101357.03;6281154;22;45244;-85
2022/05/20 08:59:02;;;;;;;;;21.25;18.75;;;;;20.38;63.22;101376.50;6281536;22;45466;-85
2022/05/20 09:01:36;;;;;;;;;21.25;19.75;;;;;20.44;63.70;101384.31;6279846;22;47253;-85
2022/05/20 09:04:04;;;;;;;;;26.50;24.00;;;;;20.51;63.53;101374.28;6282029;22;45389;-85
2022/05/20 09:06:36;;;;;;;;;22.25;20.50;;;;;20.55;63.34;101380.44;6309230;22;45313;-85
2022/05/20 09:09:11;;;;;;;;;19.00;17.00;;;;;20.57;63.34;101386.63;6281138;22;45485;-85
2022/05/20 09:11:39;;;;;;;;;18.25;16.00;;;;;20.57;63.29;101382.13;6281130;22;47367;-85
2022/05/20 09:17:07;;;;;;;;;26.00;26.00;;;;;20.58;63.79;101396.38;6308905;22;45368;-84
2022/05/20 09:19:32;;;;;;;;;25.25;23.00;;;;;20.57;63.10;101386.63;6309328;22;45255;-84
2022/05/20 09:22:07;;;;;;;;;22.50;21.25;;;;;20.57;63.50;101379.44;6280454;22;47672;-85
2022/05/20 09:24:39;;;;;;;;;18.00;17.25;;;;;20.55;63.32;101357.22;6308592;22;45214;-84
2022/05/20 09:27:08;;;;;;;;;18.50;18.00;;;;;20.53;63.31;101339.44;6309605;22;45434;-85
2022/05/20 09:30:15;;;;;;;;;18.00;17.25;;;;;20.52;63.60;101348.41;6308232;22;45365;-84
2022/05/20 09:32:44;;;;;;;;;17.50;15.75;;;;;20.44;64.04;101408.38;6280994;22;47593;-84
2022/05/20 09:35:18;;;;;;;;;17.25;14.25;;;;;20.41;63.92;101503.91;6308088;22;45338;-85
2022/05/20 09:37:46;;;;;;;;;16.50;13.25;;;;;20.30;63.31;101551.53;6309350;22;45279;-85
2022/05/20 09:40:36;;;;;;;;;15.00;14.25;;;;;20.21;63.75;101465.34;6281058;22;45447;-84
2022/05/20 09:43:09;;;;;;;;;23.00;17.75;;;;;20.18;64.35;101306.78;6280925;22;47230;-82
2022/05/20 09:45:43;;;;;;;;;19.75;17.75;;;;;20.28;64.87;101365.25;6310307;22;45148;-84
2022/05/20 09:48:09;;;;;;;;;19.50;15.00;;;;;20.52;65.16;101340.38;6280852;22;45380;-84
2022/05/20 09:50:40;;;;;;;;;21.75;18.00;;;;;20.81;64.96;101265.31;6306895;22;45445;-83
2022/05/20 09:53:14;;;;;;;;;22.75;19.25;;;;;21.12;65.67;101248.06;6281059;22;46745;-84
2022/05/20 09:55:45;;;;;;;;;12.50;11.25;;;;;21.43;65.37;101237.00;6280906;22;45291;-85
2022/05/20 09:58:27;;;;;;;;;21.75;19.75;;;;;21.76;65.24;101233.88;6309223;22;45315;-82
2022/05/20 10:00:59;;;;;;;;;19.75;18.75;;;;;22.08;64.39;101219.06;6280236;22;45359;-82
2022/05/20 10:03:30;;;;;;;;;18.00;18.00;;;;;22.37;64.33;101206.19;6277916;22;46892;-85
2022/05/20 10:06:04;;;;;;;;;20.00;17.25;;;;;22.67;63.97;101214.66;6307147;22;45325;-84
2022/05/20 10:09:11;;;;;;;;;17.00;16.50;;;;;22.89;62.69;101220.72;6307818;22;45310;-85
2022/05/20 10:12:13;;;;;;;;;;;;;;;;;;;;;
2022/05/20 10:15:12;;;;;;;;;;;;;;;;;;;;;
2022/05/20 10:18:04;;;;;;;;;22.00;22.00;;;;;22.76;61.63;101293.88;6305560;22;71987;-86
2022/05/20 10:20:48;;;;;;;;;22.00;21.25;;;;;22.54;61.62;101345.84;6186408;22;45880;-86
2022/05/20 10:23:19;;;;;;;;;23.75;21.00;;;;;22.43;62.09;101357.03;6279189;22;45382;-85
2022/05/20 10:26:00;;;;;;;;;24.75;22.25;;;;;22.38;62.32;101329.53;6306875;22;45429;-85
2022/05/20 10:34:57;;;;;;;;;24.00;19.25;;;;;22.91;62.93;101279.75;6310858;22;45274;-84
2022/05/20 10:38:04;;;;;;;;;25.25;23.00;;;;;23.09;62.33;101286.06;6306033;22;45497;-82
2022/05/20 10:40:33;;;;;;;;;26.25;23.75;;;;;23.27;62.31;101287.03;6278413;22;45782;-82
2022/05/20 10:43:16;;;;;;;;;20.50;20.50;;;;;23.41;61.70;101289.91;6308101;22;45496;-81
2022/05/20 10:49:17;;;;;;;;;23.00;20.50;;;;;23.71;60.53;101267.81;6222025;22;45396;-81
2022/05/20 10:52:07;;;;;;;;;23.00;21.25;;;;;23.81;60.83;101242.25;6280627;22;45378;-81
2022/05/20 10:54:48;;;;;;;;;18.00;16.00;;;;;23.90;60.46;101259.75;6308598;22;45240;-81
2022/05/20 10:57:37;;;;;;;;;26.00;22.75;;;;;24.17;60.62;101273.59;6281323;22;45720;-83
2022/05/20 11:00:12;;;;;;;;;22.50;20.50;;;;;24.48;60.30;101269.31;6309786;22;45202;-81
2022/05/20 11:03:25;;;;;;;;;19.75;18.00;;;;;24.77;59.62;101270.44;6284508;22;45184;-83
2022/05/20 11:06:29;;;;;;;;;23.25;22.50;;;;;25.05;59.07;101281.41;6281332;22;45240;-82
2022/05/20 11:09:06;;;;;;;;;20.00;17.75;;;;;25.14;58.68;101308.81;6280988;22;45258;-82
2022/05/20 11:11:53;;;;;;;;;18.25;16.75;;;;;25.06;57.97;101310.09;6282104;22;47389;-82
2022/05/20 11:14:31;;;;;;;;;18.50;15.50;;;;;24.95;58.10;101333.22;6280245;22;45201;-82
2022/05/20 11:17:17;;;;;;;;;20.75;19.75;;;;;24.84;57.93;101337.34;6309135;22;45377;-83
2022/05/20 11:20:19;;;;;;;;;20.25;20.25;;;;;24.81;58.84;101332.13;6279953;22;45647;-80
2022/05/20 11:23:06;;;;;;;;;20.25;18.00;;;;;24.85;58.29;101333.69;6308110;22;45329;-82
2022/05/20 11:25:43;;;;;;;;;22.75;19.75;;;;;25.00;58.65;101333.81;6280195;22;45316;-81
2022/05/20 11:28:20;;;;;;;;;18.00;18.00;;;;;25.16;58.28;101321.28;6306847;22;45375;-83
2022/05/20 11:31:14;;;;;;;;;17.00;15.00;;;;;25.31;58.19;101311.44;6280757;22;45237;-81
2022/05/20 11:33:45;;;;;;;;;18.00;17.25;;;;;25.48;57.28;101318.59;6280239;22;46985;-87
2022/05/20 11:36:26;;;;;;;;;17.25;16.50;;;;;25.64;57.11;101314.06;6280359;22;45378;-84
2022/05/20 11:39:26;;;;;;;;;16.75;15.75;;;;;25.87;57.26;101318.13;6280213;22;45223;-82
2022/05/20 11:42:01;;;;;;;;;14.75;14.50;;;;;26.05;56.75;101329.66;6280869;22;45300;-83
2022/05/20 11:44:42;;;;;;;;;17.25;16.25;;;;;26.16;55.99;101334.44;6280773;22;47303;-84
2022/05/20 11:47:49;;;;;;;;;14.25;14.25;;;;;26.09;55.81;101328.53;6280616;22;45233;-84
2022/05/20 11:50:39;;;;;;;;;17.00;16.50;;;;;26.06;56.04;101331.44;6308754;22;45208;-89
2022/05/20 11:53:56;;;;;;;;;;;;;;;;;;;;;
2022/05/20 11:56:42;;;;;;;;;15.50;15.25;;;;;26.29;55.19;101294.94;6311089;22;76483;-91
2022/05/20 11:59:20;;;;;;;;;15.00;14.00;;;;;26.35;55.00;101285.59;6316219;22;44661;-91
2022/05/20 12:01:49;;;;;;;;;12.25;12.25;;;;;26.35;54.08;101272.94;6301036;22;45421;-89
2022/05/20 12:04:18;;;;;;;;;15.00;13.50;;;;;26.43;54.08;101277.03;6294172;22;45277;-92
2022/05/20 12:06:49;;;;;;;;;13.25;12.50;;;;;26.52;54.32;101290.00;6285340;22;47561;-90
2022/05/20 12:09:43;;;;;;;;;13.25;13.25;;;;;26.56;53.96;101281.59;6312636;22;45225;-89
2022/05/20 12:12:12;;;;;;;;;11.75;11.75;;;;;26.51;53.31;101290.91;6285486;22;45353;-89
2022/05/20 12:15:15;;;;;;;;;13.25;13.25;;;;;26.42;53.53;101297.75;6285104;22;45611;-89
2022/05/20 12:17:54;;;;;;;;;12.50;11.25;;;;;26.30;53.36;101303.91;6235731;22;45394;-89
2022/05/20 12:26:21;;;;;;;;;13.25;11.00;;;;;25.66;53.44;101316.66;6331691;22;44877;-91